Time;durP1;ratioP1;P1;durP2;ratioP2;P2;SDS_P1;SDS_P2;PMS_P1;PMS_P2;Temp;Humidity;BMP_temperature;BMP_pressure;BME280_temperature;BME280_humidity;BME280_pressure;Samples;Min_cycle;Max_cycle;Signal;HPM_P1;HPM_P2
2023/07/19 06:24:38;;;;;;;;;3.33;2.00;;;;;21.93;48.49;101415.97;5079758;27;45462;-71
2023/07/19 06:27:04;;;;;;;;;1.67;1.67;;;;;22.13;48.01;101426.78;5066738;28;45841;-72
2023/07/19 06:29:29;;;;;;;;;0.33;0.33;;;;;22.29;48.02;101418.97;5065928;28;45794;-70
2023/07/19 06:31:54;;;;;;;;;2.00;2.00;;;;;22.45;47.70;101426.50;5063500;28;50681;-72
2023/07/19 06:34:20;;;;;;;;;2.00;2.00;;;;;22.63;48.21;101423.06;5062697;28;55314;-72
2023/07/19 06:36:45;;;;;;;;;0.67;0.67;;;;;22.80;47.82;101420.63;5064623;28;45451;-69
2023/07/19 06:39:10;;;;;;;;;1.00;1.00;;;;;22.96;47.71;101422.69;5066330;28;45703;-69
2023/07/19 06:41:36;;;;;;;;;0.67;0.67;;;;;23.09;47.75;101416.94;5064949;28;48101;-70
2023/07/19 06:44:01;;;;;;;;;0.00;0.00;;;;;23.23;47.52;101418.28;5068054;28;47175;-70
2023/07/19 06:46:26;;;;;;;;;1.00;1.00;;;;;23.35;47.61;101413.56;5065664;28;45486;-70
2023/07/19 06:48:52;;;;;;;;;0.67;0.67;;;;;23.47;47.35;101416.91;5066898;28;45474;-70
2023/07/19 06:51:17;;;;;;;;;0.00;0.00;;;;;23.56;47.22;101410.59;5065403;28;45471;-69
2023/07/19 06:53:42;;;;;;;;;3.00;1.00;;;;;23.68;46.84;101419.34;5066073;28;50214;-71
2023/07/19 06:56:08;;;;;;;;;0.00;0.00;;;;;23.76;46.95;101416.72;5063739;28;45602;-70
2023/07/19 06:58:33;;;;;;;;;1.00;1.00;;;;;23.85;47.04;101416.78;5064968;28;45447;-71
2023/07/19 07:00:59;;;;;;;;;1.00;0.00;;;;;23.91;46.98;101417.03;5063502;28;45473;-71
2023/07/19 07:03:24;;;;;;;;;2.00;0.00;;;;;23.99;46.47;101421.69;5061845;28;45699;-70
2023/07/19 07:05:50;;;;;;;;;0.67;0.00;;;;;24.06;46.55;101413.78;5065400;28;45355;-70
2023/07/19 07:08:15;;;;;;;;;1.00;1.00;;;;;24.12;46.17;101429.47;5067836;28;45416;-67
2023/07/19 07:10:42;;;;;;;;;0.00;0.00;;;;;24.17;46.46;101421.72;5061586;28;45578;-67
2023/07/19 07:13:08;;;;;;;;;0.00;0.00;;;;;24.26;46.38;101414.50;5066712;28;45606;-69
2023/07/19 07:15:33;;;;;;;;;0.67;0.67;;;;;24.37;46.26;101420.66;5063363;28;45503;-68
2023/07/19 07:17:58;;;;;;;;;0.00;0.00;;;;;24.46;46.28;101419.72;5061761;28;45344;-69
2023/07/19 07:20:24;;;;;;;;;0.00;0.00;;;;;24.55;46.38;101423.34;5061228;28;46826;-70
2023/07/19 07:22:50;;;;;;;;;0.00;0.00;;;;;24.62;46.10;101424.41;5060574;28;46063;-70
2023/07/19 07:25:16;;;;;;;;;1.00;1.00;;;;;24.73;46.10;101418.72;5083500;27;45851;-71
2023/07/19 07:27:41;;;;;;;;;0.00;0.00;;;;;24.79;46.11;101413.66;5066098;27;45610;-70
2023/07/19 07:30:08;;;;;;;;;0.00;0.00;;;;;24.89;46.04;101421.72;5066249;28;45593;-72
2023/07/19 07:32:34;;;;;;;;;2.00;0.00;;;;;24.97;45.93;101422.59;5061727;28;46638;-71
2023/07/19 07:34:59;;;;;;;;;0.00;0.00;;;;;25.04;46.33;101414.66;5053990;28;45601;-71
2023/07/19 07:37:25;;;;;;;;;0.00;0.00;;;;;25.12;46.11;101424.72;5044345;28;45629;-71
2023/07/19 07:39:50;;;;;;;;;2.00;2.00;;;;;25.17;44.82;101421.53;5053588;28;45922;-71
2023/07/19 07:42:16;;;;;;;;;1.00;1.00;;;;;25.19;44.06;101425.78;5049777;28;45558;-71
2023/07/19 07:44:41;;;;;;;;;0.00;0.00;;;;;25.21;44.50;101422.88;5051779;28;45586;-71
2023/07/19 07:47:07;;;;;;;;;2.00;1.00;;;;;25.24;44.77;101428.84;5044660;28;45797;-70
2023/07/19 07:49:33;;;;;;;;;0.00;0.00;;;;;25.26;44.80;101426.81;5041226;28;45629;-70
2023/07/19 07:51:59;;;;;;;;;0.00;0.00;;;;;25.31;44.64;101426.34;5049793;28;45551;-70
2023/07/19 07:54:24;;;;;;;;;0.67;0.67;;;;;25.38;44.30;101434.69;5049078;28;45419;-70
2023/07/19 07:56:49;;;;;;;;;3.00;1.67;;;;;25.42;44.46;101432.47;5049687;28;45483;-70
2023/07/19 07:59:15;;;;;;;;;1.00;1.00;;;;;25.45;44.47;101430.28;5053173;28;45438;-70
2023/07/19 08:01:41;;;;;;;;;1.00;1.00;;;;;25.49;44.69;101428.06;5046877;28;46931;-69
2023/07/19 08:04:09;;;;;;;;;2.00;1.00;;;;;25.56;44.45;101436.44;5051049;28;45333;-69
2023/07/19 08:06:35;;;;;;;;;1.00;1.00;;;;;25.58;44.70;101427.09;5045509;28;45506;-71
2023/07/19 08:09:01;;;;;;;;;0.00;0.00;;;;;25.62;44.69;101420.31;5057236;28;45531;-71
2023/07/19 08:11:26;;;;;;;;;1.00;1.00;;;;;25.61;44.85;101413.19;5063856;28;45922;-71
2023/07/19 08:13:52;;;;;;;;;0.67;0.67;;;;;25.69;44.46;101415.06;5044526;28;45669;-72
2023/07/19 08:16:18;;;;;;;;;0.67;0.67;;;;;25.74;44.55;101420.00;5050057;28;45533;-72
2023/07/19 08:18:43;;;;;;;;;1.00;1.00;;;;;25.77;44.71;101423.25;5053538;28;45471;-71
2023/07/19 08:21:09;;;;;;;;;0.00;0.00;;;;;25.80;44.44;101419.34;5043636;28;45556;-70
2023/07/19 08:23:34;;;;;;;;;0.00;0.00;;;;;25.85;44.66;101418.84;5051896;28;45536;-70
2023/07/19 08:25:59;;;;;;;;;0.67;0.67;;;;;25.86;44.96;101418.66;5050083;28;45430;-69
2023/07/19 08:28:25;;;;;;;;;0.00;0.00;;;;;25.91;44.52;101421.72;5047044;28;45820;-69
2023/07/19 08:30:54;;;;;;;;;0.00;0.00;;;;;25.90;44.58;101411.88;5044503;28;45503;-70
2023/07/19 08:33:24;;;;;;;;;0.00;0.00;;;;;25.97;44.40;101417.50;5051711;28;45785;-70
2023/07/19 08:35:50;;;;;;;;;1.33;0.00;;;;;26.01;44.85;101418.00;5053236;28;45464;-70
2023/07/19 08:38:15;;;;;;;;;1.00;1.00;;;;;26.03;44.50;101416.81;5042383;28;45594;-69
2023/07/19 08:40:51;;;;;;;;;0.00;0.00;;;;;26.08;44.51;101421.75;5051526;28;45757;-67
2023/07/19 08:43:17;;;;;;;;;2.67;2.00;;;;;26.09;44.72;101412.56;5044233;28;45384;-68
2023/07/19 08:45:42;;;;;;;;;1.00;1.00;;;;;26.13;44.87;101418.53;5052117;28;45801;-68
2023/07/19 08:48:08;;;;;;;;;1.00;1.00;;;;;26.15;44.99;101419.19;5050448;28;46398;-69
2023/07/19 08:50:35;;;;;;;;;1.00;1.00;;;;;26.13;44.43;101408.50;5053171;28;46420;-73
2023/07/19 08:53:02;;;;;;;;;1.67;1.00;;;;;26.18;42.42;101419.72;5044577;28;45585;-73
2023/07/19 08:55:30;;;;;;;;;1.00;1.00;;;;;26.15;42.28;101417.31;5051815;28;45730;-72
2023/07/19 08:57:56;;;;;;;;;3.00;1.67;;;;;26.13;42.33;101415.78;5041169;28;45799;-70
2023/07/19 09:00:21;;;;;;;;;1.67;1.00;;;;;26.13;41.94;101418.53;5049359;28;45462;-74
2023/07/19 09:02:47;;;;;;;;;2.00;2.00;;;;;26.13;42.10;101419.38;5049541;28;45462;-73
2023/07/19 09:05:13;;;;;;;;;1.67;1.67;;;;;26.13;42.32;101405.78;5052520;28;45363;-74
2023/07/19 09:07:40;;;;;;;;;2.67;1.67;;;;;26.15;42.63;101414.59;5053687;28;45502;-72
2023/07/19 09:10:07;;;;;;;;;0.67;0.67;;;;;26.13;43.00;101415.78;5052613;28;46097;-71
2023/07/19 09:12:41;;;;;;;;;3.33;1.00;;;;;26.14;43.07;101412.06;5040067;28;45522;-70
2023/07/19 09:15:08;;;;;;;;;4.67;2.00;;;;;26.17;42.69;101415.28;5050832;28;45447;-70
2023/07/19 09:17:44;;;;;;;;;1.00;1.00;;;;;26.19;43.18;101415.09;5052718;28;45414;-70
2023/07/19 09:20:11;;;;;;;;;1.33;1.33;;;;;26.22;42.83;101419.34;5052192;28;47524;-70
2023/07/19 09:22:37;;;;;;;;;5.00;2.00;;;;;26.23;42.74;101415.63;5050814;28;45904;-71
2023/07/19 09:25:05;;;;;;;;;2.00;1.67;;;;;26.26;43.18;101409.88;5054387;28;45411;-71
2023/07/19 09:27:32;;;;;;;;;4.67;2.67;;;;;26.28;42.71;101418.72;5049796;28;45459;-71
2023/07/19 09:29:58;;;;;;;;;2.00;2.00;;;;;26.31;43.31;101411.06;5050435;28;45617;-70
2023/07/19 09:32:24;;;;;;;;;2.00;2.00;;;;;26.31;42.83;101411.06;5042735;28;45529;-71
2023/07/19 09:34:53;;;;;;;;;1.00;1.00;;;;;26.37;43.00;101411.41;5052265;28;45731;-72
2023/07/19 09:37:20;;;;;;;;;1.33;1.33;;;;;26.38;42.82;101404.94;5049672;28;45588;-72
2023/07/19 09:39:46;;;;;;;;;4.00;4.00;;;;;26.39;42.44;101418.38;5056190;28;47038;-73
2023/07/19 09:42:13;;;;;;;;;2.33;2.33;;;;;26.37;42.06;101412.25;5046380;28;45463;-72
2023/07/19 09:44:39;;;;;;;;;6.00;2.00;;;;;26.34;41.63;101403.56;5047898;28;45579;-73
2023/07/19 09:47:09;;;;;;;;;2.00;2.00;;;;;26.31;41.60;101404.75;5049388;28;45784;-73
2023/07/19 09:49:36;;;;;;;;;2.00;2.00;;;;;26.33;42.02;101413.63;5052157;28;46621;-72
2023/07/19 09:52:03;;;;;;;;;1.00;1.00;;;;;26.35;42.14;101405.28;5049456;28;45451;-73
2023/07/19 09:54:31;;;;;;;;;2.67;1.33;;;;;26.34;41.86;101412.59;5046864;28;45516;-72
2023/07/19 09:56:58;;;;;;;;;2.67;2.33;;;;;26.33;41.72;101424.50;5046938;28;45506;-71
2023/07/19 09:59:27;;;;;;;;;5.00;2.00;;;;;26.32;41.02;101422.78;5053928;28;46308;-73
2023/07/19 10:01:53;;;;;;;;;2.67;2.00;;;;;26.30;40.89;101416.66;5050745;28;45490;-73
2023/07/19 10:04:25;;;;;;;;;2.00;2.00;;;;;26.31;41.47;101405.63;5047481;28;45446;-73
2023/07/19 10:07:20;;;;;;;;;1.00;1.00;;;;;26.29;41.36;101396.75;5045700;28;45440;-72
2023/07/19 10:09:48;;;;;;;;;2.00;2.00;;;;;26.29;41.17;101406.81;5065606;28;45937;-71
2023/07/19 10:12:16;;;;;;;;;2.67;2.67;;;;;26.29;41.10;101407.66;5063798;28;45676;-74
2023/07/19 10:14:59;;;;;;;;;2.00;2.00;;;;;26.29;41.47;101406.81;5067077;27;45765;-71
2023/07/19 10:17:25;;;;;;;;;3.00;1.67;;;;;26.25;40.87;101398.16;5066888;27;45924;-71
2023/07/19 10:20:05;;;;;;;;;2.00;2.00;;;;;26.32;41.46;101414.63;5066471;28;45478;-71
2023/07/19 10:22:55;;;;;;;;;1.33;1.33;;;;;26.34;41.67;101406.28;5066440;28;45543;-71
2023/07/19 10:25:29;;;;;;;;;2.00;1.00;;;;;26.33;41.29;101419.06;5067102;28;46290;-72
2023/07/19 10:27:57;;;;;;;;;2.00;2.00;;;;;26.35;40.87;101413.44;5068357;28;45640;-70
2023/07/19 10:30:58;;;;;;;;;1.00;1.00;;;;;26.35;41.02;101402.56;5067047;27;45499;-71
2023/07/19 10:33:26;;;;;;;;;4.33;3.00;;;;;26.35;40.99;101406.13;5051165;28;46163;-72
2023/07/19 10:36:05;;;;;;;;;6.00;2.00;;;;;26.35;40.84;101397.97;5069006;28;45809;-71
2023/07/19 10:38:31;;;;;;;;;3.67;3.67;;;;;26.37;41.43;101397.78;5064008;28;45841;-78
2023/07/19 10:40:58;;;;;;;;;2.67;2.67;;;;;26.38;41.48;101399.47;5068500;28;46402;-71
2023/07/19 10:43:25;;;;;;;;;4.33;4.00;;;;;26.39;41.34;101404.75;5049161;28;45521;-73
2023/07/19 10:45:52;;;;;;;;;2.67;2.33;;;;;26.41;41.12;101397.25;5061043;28;45567;-72
2023/07/19 10:48:20;;;;;;;;;2.33;2.33;;;;;26.40;41.20;101403.72;5046680;28;46041;-71
2023/07/19 10:50:46;;;;;;;;;2.33;2.00;;;;;26.42;41.34;101407.16;5060122;28;48533;-71
2023/07/19 10:53:12;;;;;;;;;1.67;1.67;;;;;26.39;40.72;101399.31;5051410;28;45682;-72
2023/07/19 10:55:37;;;;;;;;;2.67;2.67;;;;;26.43;41.40;101411.56;5045936;28;45412;-71
2023/07/19 10:58:04;;;;;;;;;2.00;2.00;;;;;26.45;40.80;101403.22;5047537;28;45584;-71
2023/07/19 11:00:29;;;;;;;;;3.33;2.00;;;;;26.47;40.66;101405.75;5041306;28;46543;-71
2023/07/19 11:02:54;;;;;;;;;5.00;3.00;;;;;26.46;41.21;101401.34;5036885;28;45443;-71
2023/07/19 11:05:20;;;;;;;;;1.00;1.00;;;;;26.47;40.74;101400.31;5044990;28;45364;-73
2023/07/19 11:07:48;;;;;;;;;1.67;1.67;;;;;26.50;41.14;101405.41;5043414;28;45612;-72
2023/07/19 11:10:13;;;;;;;;;1.00;1.00;;;;;26.49;41.34;101401.88;5049879;28;45497;-71
2023/07/19 11:12:39;;;;;;;;;1.00;1.00;;;;;26.50;40.83;101399.97;5050045;28;45408;-72
2023/07/19 11:15:07;;;;;;;;;1.33;1.33;;;;;26.51;40.38;101394.38;5046552;28;45325;-75
2023/07/19 11:17:32;;;;;;;;;2.33;2.00;;;;;26.51;40.68;101404.38;5053494;28;45559;-74
2023/07/19 11:19:58;;;;;;;;;1.00;1.00;;;;;26.54;41.01;101402.19;5070437;28;46452;-71
2023/07/19 11:22:26;;;;;;;;;4.00;2.00;;;;;26.55;41.21;101401.16;5052194;28;45364;-71
2023/07/19 11:24:53;;;;;;;;;2.00;1.00;;;;;26.57;41.13;101403.72;5061041;28;45399;-71
2023/07/19 11:27:39;;;;;;;;;1.67;1.67;;;;;26.57;40.21;101388.22;5058581;28;45769;-73
2023/07/19 11:30:06;;;;;;;;;6.33;2.00;;;;;26.57;40.40;101395.56;5054278;28;46143;-72
2023/07/19 11:32:32;;;;;;;;;2.00;2.00;;;;;26.56;40.39;101402.84;5054093;28;45601;-72
2023/07/19 11:35:00;;;;;;;;;2.00;2.00;;;;;26.53;40.44;101395.03;5052485;28;45399;-72
2023/07/19 11:37:38;;;;;;;;;3.00;3.00;;;;;26.54;40.57;101395.88;5053038;28;45587;-72
2023/07/19 11:40:05;;;;;;;;;3.00;3.00;;;;;26.55;40.74;101397.59;5050222;28;46277;-73
2023/07/19 11:42:52;;;;;;;;;1.00;1.00;;;;;26.54;40.70;101385.00;5050802;28;45412;-73
2023/07/19 11:45:28;;;;;;;;;2.00;2.00;;;;;26.52;41.20;101389.78;5044245;28;45787;-73
2023/07/19 11:48:01;;;;;;;;;1.00;1.00;;;;;26.53;40.55;101383.31;5052101;28;45522;-72
2023/07/19 11:50:27;;;;;;;;;2.67;2.33;;;;;26.55;41.58;101400.31;5049739;28;46411;-71
2023/07/19 11:53:04;;;;;;;;;2.33;1.00;;;;;26.55;41.64;101393.00;5050068;28;45377;-72
2023/07/19 11:55:31;;;;;;;;;2.67;2.67;;;;;26.56;41.09;101382.94;5051062;28;45709;-73
2023/07/19 11:58:03;;;;;;;;;4.00;2.67;;;;;26.60;41.49;101378.03;5053868;28;45505;-72
2023/07/19 12:00:30;;;;;;;;;2.00;2.00;;;;;26.60;41.63;101381.56;5046119;28;46406;-72
2023/07/19 12:02:56;;;;;;;;;2.33;2.33;;;;;26.58;41.36;101381.75;5052379;28;45548;-73
2023/07/19 12:05:25;;;;;;;;;3.33;1.33;;;;;26.63;41.90;101391.28;5048848;28;45445;-71
2023/07/19 12:07:51;;;;;;;;;2.00;1.00;;;;;26.62;42.18;101373.25;5048374;28;45609;-71
2023/07/19 12:10:22;;;;;;;;;2.00;2.00;;;;;26.62;41.75;101385.00;5040904;28;46167;-71
2023/07/19 12:12:48;;;;;;;;;5.00;2.00;;;;;26.65;42.61;101400.97;5048351;28;45698;-73
2023/07/19 12:15:15;;;;;;;;;2.00;2.00;;;;;26.66;41.79;101393.66;5050442;28;45607;-74
2023/07/19 12:17:40;;;;;;;;;3.33;2.67;;;;;26.65;42.32;101389.25;5051998;28;45501;-74
2023/07/19 12:20:08;;;;;;;;;2.00;2.00;;;;;26.68;42.04;101381.56;5046179;28;45897;-77
2023/07/19 12:22:35;;;;;;;;;2.00;2.00;;;;;26.68;42.43;101380.69;5048671;28;45543;-78
2023/07/19 12:25:01;;;;;;;;;2.33;2.33;;;;;26.68;42.10;101383.41;5046030;28;47107;-78
2023/07/19 12:27:26;;;;;;;;;2.00;2.00;;;;;26.70;42.59;101384.13;5036937;28;46504;-74
2023/07/19 14:25:23;;;;;;;;;3.33;2.00;;;;;23.77;48.12;101341.69;5114699;27;45547;-71
2023/07/19 14:27:49;;;;;;;;;3.67;3.67;;;;;23.92;47.94;101336.56;5099440;27;45465;-73
2023/07/19 14:30:14;;;;;;;;;1.00;1.00;;;;;24.10;47.74;101341.16;5113341;27;45405;-73
2023/07/19 14:32:40;;;;;;;;;2.33;1.00;;;;;24.28;47.85;101325.66;5111487;27;45533;-73
2023/07/19 14:35:05;;;;;;;;;1.00;1.00;;;;;24.47;47.57;101327.31;5103957;27;46431;-72
2023/07/19 14:37:31;;;;;;;;;2.00;2.00;;;;;24.66;47.54;101338.09;5100571;27;45728;-70
2023/07/19 14:39:56;;;;;;;;;2.00;2.00;;;;;24.80;47.48;101334.75;5107038;27;45408;-71
2023/07/19 14:42:22;;;;;;;;;2.33;2.33;;;;;24.97;47.06;101338.44;5108169;27;45517;-71
2023/07/19 14:44:47;;;;;;;;;0.00;0.00;;;;;25.10;47.10;101343.38;5114054;27;46334;-71
2023/07/19 14:47:14;;;;;;;;;3.33;2.00;;;;;25.25;46.58;101334.59;5107956;27;45527;-69
2023/07/19 14:49:40;;;;;;;;;2.00;2.00;;;;;25.35;46.61;101332.63;5105037;27;45784;-70
2023/07/19 14:52:06;;;;;;;;;1.67;1.67;;;;;25.46;46.54;101331.41;5108085;27;45525;-73
2023/07/19 14:54:32;;;;;;;;;1.00;1.00;;;;;25.54;46.51;101327.84;5108406;27;45746;-73
2023/07/19 14:56:59;;;;;;;;;1.33;1.33;;;;;25.60;46.62;101321.81;5105052;27;45507;-72
2023/07/19 14:59:26;;;;;;;;;2.00;1.00;;;;;25.71;46.45;101314.34;5100112;27;45834;-75
2023/07/19 15:01:52;;;;;;;;;1.67;1.67;;;;;25.77;45.52;101319.09;5097310;27;45517;-74
2023/07/19 15:04:19;;;;;;;;;2.67;1.00;;;;;25.84;44.94;101335.56;5102561;27;47238;-74
2023/07/19 15:06:44;;;;;;;;;1.67;1.67;;;;;25.90;45.28;101324.00;5106837;27;45618;-72
2023/07/19 15:09:10;;;;;;;;;4.00;2.67;;;;;25.96;44.69;101325.19;5101410;27;45495;-73
2023/07/19 15:11:35;;;;;;;;;1.00;1.00;;;;;26.02;44.57;101317.22;5103408;27;45611;-72
2023/07/19 15:14:01;;;;;;;;;3.00;3.00;;;;;26.09;44.27;101320.09;5105517;27;45537;-77
2023/07/19 15:16:26;;;;;;;;;1.00;1.00;;;;;26.14;44.58;101311.41;5101804;27;45842;-76
2023/07/19 15:18:51;;;;;;;;;2.00;2.00;;;;;26.13;44.20;101304.25;5107436;27;45512;-75
2023/07/19 15:21:17;;;;;;;;;2.33;1.33;;;;;26.25;44.31;101312.94;5107056;27;45654;-73
2023/07/19 15:23:42;;;;;;;;;2.67;2.67;;;;;26.28;43.65;101318.06;5106055;27;45870;-75
2023/07/19 15:26:07;;;;;;;;;1.00;1.00;;;;;26.29;43.64;101317.84;5104743;27;45538;-76
2023/07/19 15:28:33;;;;;;;;;4.67;1.67;;;;;26.29;43.48;101303.41;5105188;27;45682;-78
2023/07/19 15:30:58;;;;;;;;;1.33;1.33;;;;;26.36;43.58;101307.13;5107015;27;49023;-77
2023/07/19 15:33:24;;;;;;;;;5.00;2.00;;;;;26.39;43.94;101314.09;5108334;27;46279;-75
2023/07/19 15:35:49;;;;;;;;;1.00;1.00;;;;;26.42;43.25;101320.06;5096379;27;45392;-71
2023/07/19 15:38:23;;;;;;;;;1.00;1.00;;;;;26.45;44.11;101316.13;5092178;27;45761;-73
2023/07/19 15:40:49;;;;;;;;;2.00;2.00;;;;;26.48;43.93;101309.50;5092890;27;45466;-73
2023/07/19 15:43:15;;;;;;;;;0.67;0.67;;;;;26.45;43.61;101297.09;5091479;27;45678;-72
2023/07/19 15:45:40;;;;;;;;;2.00;1.67;;;;;26.50;43.95;101300.13;5087750;27;45987;-73
2023/07/19 15:48:06;;;;;;;;;3.00;2.00;;;;;26.54;43.57;101301.47;5093379;27;45438;-72
2023/07/19 15:50:31;;;;;;;;;1.00;1.00;;;;;26.58;43.52;101299.25;5090478;27;45740;-72
2023/07/19 15:52:57;;;;;;;;;1.67;1.00;;;;;26.57;44.12;101292.94;5087706;27;46713;-72
2023/07/19 15:55:23;;;;;;;;;3.67;1.00;;;;;26.64;44.21;101301.25;5089169;27;45458;-73
2023/07/19 15:57:48;;;;;;;;;1.33;1.33;;;;;26.66;44.21;101296.50;5090563;27;45675;-70
2023/07/19 16:00:14;;;;;;;;;1.67;1.00;;;;;26.69;43.67;101296.13;5091355;27;50829;-70
2023/07/19 16:02:39;;;;;;;;;1.00;1.00;;;;;26.68;44.03;101299.88;5093835;27;45579;-70
2023/07/19 16:05:05;;;;;;;;;2.00;1.00;;;;;26.70;43.79;101289.66;5092823;27;45476;-70
2023/07/19 16:07:30;;;;;;;;;3.33;2.00;;;;;26.70;43.59;101295.09;5091469;27;45433;-78
2023/07/19 16:09:56;;;;;;;;;1.33;1.33;;;;;26.70;42.75;101300.53;5093120;27;45633;-83
2023/07/19 16:12:21;;;;;;;;;2.00;0.00;;;;;26.69;42.54;101296.13;5095159;27;45632;-79
2023/07/19 16:14:46;;;;;;;;;3.67;2.00;;;;;26.70;42.98;101292.38;5093579;27;50432;-78
2023/07/19 16:17:12;;;;;;;;;1.00;1.00;;;;;26.69;42.56;101290.69;5094508;27;45480;-73
2023/07/19 16:19:37;;;;;;;;;1.00;1.00;;;;;26.72;42.54;101296.81;5090880;27;45526;-75
2023/07/19 16:22:02;;;;;;;;;1.67;1.00;;;;;26.74;42.95;101300.19;5091482;27;45739;-78
2023/07/19 16:24:28;;;;;;;;;2.00;2.00;;;;;26.72;42.46;101289.47;5090656;27;45654;-76
2023/07/19 16:26:53;;;;;;;;;1.33;1.33;;;;;26.74;43.10;101292.88;5087319;27;45513;-75
2023/07/19 16:29:18;;;;;;;;;1.00;1.00;;;;;26.72;42.60;101291.38;5092970;27;45836;-74
2023/07/19 16:31:44;;;;;;;;;1.00;1.00;;;;;26.75;42.68;101291.00;5085027;27;46325;-76
2023/07/19 16:34:09;;;;;;;;;5.00;3.00;;;;;26.77;42.11;101291.69;5089952;27;45410;-79
2023/07/19 16:36:35;;;;;;;;;2.00;2.00;;;;;26.77;42.85;101292.50;5091044;27;45481;-79
2023/07/19 16:39:00;;;;;;;;;2.00;2.00;;;;;26.78;42.67;101287.94;5094126;27;45610;-73
2023/07/19 16:41:25;;;;;;;;;1.00;1.00;;;;;26.76;42.11;101284.56;5086663;27;47283;-77
2023/07/19 16:43:53;;;;;;;;;1.00;1.00;;;;;26.77;42.68;101283.53;5087195;27;47194;-76
2023/07/19 16:46:19;;;;;;;;;2.33;1.33;;;;;26.77;42.86;101276.19;5088168;27;45660;-75
2023/07/19 16:48:44;;;;;;;;;0.00;0.00;;;;;26.76;42.10;101277.22;5091007;27;45849;-77
2023/07/19 16:51:09;;;;;;;;;1.00;1.00;;;;;26.79;42.23;101289.63;5092349;27;47405;-76
2023/07/19 16:53:34;;;;;;;;;1.00;1.00;;;;;26.73;41.91;101285.72;5092686;27;45453;-75
2023/07/19 16:56:00;;;;;;;;;1.33;1.33;;;;;26.77;42.26;101280.78;5093544;27;45679;-77
2023/07/19 16:58:25;;;;;;;;;1.00;1.00;;;;;26.77;42.79;101286.25;5093054;27;45624;-77
2023/07/19 17:00:51;;;;;;;;;1.00;1.00;;;;;26.74;42.84;101279.28;5080263;27;45622;-76
2023/07/19 17:03:17;;;;;;;;;2.00;0.33;;;;;26.72;42.12;101284.03;5088248;27;54050;-76
2023/07/19 17:05:43;;;;;;;;;1.33;1.33;;;;;26.70;42.43;101283.38;5091224;27;45367;-77
2023/07/19 17:08:08;;;;;;;;;1.33;1.00;;;;;26.65;42.79;101272.16;5091336;27;45919;-76
2023/07/19 17:10:34;;;;;;;;;0.67;0.67;;;;;26.65;42.73;101273.00;5082555;27;45806;-76
2023/07/19 17:13:04;;;;;;;;;1.00;1.00;;;;;26.65;42.31;101272.16;5090324;27;45575;-77
2023/07/19 17:15:30;;;;;;;;;1.00;1.00;;;;;26.64;42.27;101265.03;5092451;27;45556;-76
2023/07/19 17:17:59;;;;;;;;;1.00;1.00;;;;;26.61;43.02;101266.25;5088491;27;45802;-76
2023/07/19 17:20:25;;;;;;;;;1.00;1.00;;;;;26.62;42.83;101265.22;5091273;27;46344;-76
2023/07/19 17:22:51;;;;;;;;;1.00;0.67;;;;;26.60;42.77;101267.25;5087058;27;45519;-76
2023/07/19 17:25:17;;;;;;;;;1.00;1.00;;;;;26.58;42.46;101272.03;5089363;27;45393;-76
2023/07/19 17:27:42;;;;;;;;;0.33;0.33;;;;;26.55;42.62;101267.78;5092258;27;45576;-76
2023/07/19 17:30:08;;;;;;;;;1.00;1.00;;;;;26.50;42.56;101259.31;5092424;27;45608;-76
2023/07/19 17:32:34;;;;;;;;;3.00;1.33;;;;;26.54;42.65;101260.66;5093357;27;45534;-76
2023/07/19 17:34:59;;;;;;;;;2.67;2.67;;;;;26.52;42.26;101259.13;5084500;27;45327;-76
2023/07/19 17:37:25;;;;;;;;;0.00;0.00;;;;;26.52;42.50;101256.41;5093282;27;45454;-76
2023/07/19 17:39:50;;;;;;;;;1.00;1.00;;;;;26.52;42.40;101259.13;5089415;27;46223;-76
2023/07/19 17:42:16;;;;;;;;;1.00;1.00;;;;;26.51;42.76;101261.00;5091675;27;46981;-76
2023/07/19 17:44:41;;;;;;;;;1.00;1.00;;;;;26.51;43.11;101261.00;5093676;27;45338;-76
2023/07/19 17:47:07;;;;;;;;;1.67;1.00;;;;;26.51;42.87;101263.72;5086616;27;45730;-76
2023/07/19 17:49:32;;;;;;;;;0.33;0.33;;;;;26.51;42.52;101271.03;5090029;27;46076;-77
2023/07/19 17:51:58;;;;;;;;;1.67;1.00;;;;;26.46;42.98;101263.41;5086099;27;45677;-77
2023/07/19 17:54:23;;;;;;;;;2.33;1.67;;;;;26.49;42.74;101270.34;5086741;27;45497;-76
2023/07/19 17:56:49;;;;;;;;;1.00;1.00;;;;;26.49;42.70;101271.22;5079939;27;45506;-76
2023/07/19 17:59:14;;;;;;;;;1.00;1.00;;;;;26.46;42.47;101270.69;5079109;27;45981;-77
2023/07/19 18:01:39;;;;;;;;;3.00;2.00;;;;;26.48;42.66;101274.13;5086718;27;45493;-77
2023/07/19 18:04:05;;;;;;;;;1.00;1.00;;;;;26.47;42.57;101265.09;5078336;27;45839;-77
2023/07/19 18:06:30;;;;;;;;;1.00;1.00;;;;;26.49;42.47;101271.22;5087161;27;45699;-76
2023/07/19 18:08:56;;;;;;;;;1.00;1.00;;;;;26.49;42.80;101282.09;5092782;27;45600;-77
2023/07/19 18:11:21;;;;;;;;;0.67;0.67;;;;;26.49;42.69;101273.09;5090476;27;45527;-76
2023/07/19 18:13:46;;;;;;;;;2.00;2.00;;;;;26.47;42.40;101273.25;5092041;27;45839;-76
2023/07/19 18:16:12;;;;;;;;;1.33;1.33;;;;;26.43;42.94;101275.47;5093058;27;54490;-76
2023/07/19 18:18:37;;;;;;;;;2.00;2.00;;;;;26.48;42.49;101274.13;5089418;27;45667;-76
2023/07/19 18:21:02;;;;;;;;;1.00;1.00;;;;;26.45;42.37;101275.31;5091084;27;51386;-76
2023/07/19 18:23:28;;;;;;;;;1.00;1.00;;;;;26.45;43.06;101283.47;5092949;27;45558;-76
2023/07/19 18:25:53;;;;;;;;;1.00;1.00;;;;;26.46;43.04;101287.91;5092126;27;45652;-77
2023/07/19 18:28:18;;;;;;;;;2.00;2.00;;;;;26.43;42.98;101283.66;5081723;27;46433;-76
2023/07/19 18:30:44;;;;;;;;;1.00;1.00;;;;;26.44;43.13;101281.75;5087593;27;45837;-76
2023/07/19 18:33:11;;;;;;;;;1.00;1.00;;;;;26.43;43.09;101280.06;5091938;27;45336;-77
2023/07/19 18:35:38;;;;;;;;;1.00;1.00;;;;;26.42;42.51;101286.53;5082418;27;45645;-76
2023/07/19 18:38:03;;;;;;;;;1.00;1.00;;;;;26.43;42.76;101289.09;5090772;27;45500;-76
2023/07/19 18:40:29;;;;;;;;;1.00;1.00;;;;;26.40;42.72;101275.81;5086430;27;47849;-77
2023/07/19 18:42:54;;;;;;;;;1.67;1.33;;;;;26.43;42.95;101293.69;5081487;27;45576;-77
2023/07/19 18:45:20;;;;;;;;;2.67;2.00;;;;;26.42;43.13;101281.97;5088505;27;45879;-77
2023/07/19 18:47:45;;;;;;;;;1.00;1.00;;;;;26.45;43.04;101302.53;5091130;27;45610;-77
2023/07/19 18:50:10;;;;;;;;;1.00;1.00;;;;;26.38;43.15;101288.78;5092688;27;45461;-77
2023/07/19 18:52:35;;;;;;;;;1.00;1.00;;;;;26.40;42.44;101291.31;5084007;27;45397;-77
2023/07/19 18:55:01;;;;;;;;;1.00;1.00;;;;;26.42;42.89;101301.00;5084707;27;45741;-77
